sensor_id;sensor_type;location;lat;lon;timestamp;P1;durP1;ratioP1;P2;durP2;ratioP2
59054;SDS011;44845;51.444;7.460;2022-12-07T00:00:38;32.00;;;22.75;;
59054;SDS011;44845;51.444;7.460;2022-12-07T00:03:04;28.90;;;20.88;;
59054;SDS011;44845;51.444;7.460;2022-12-07T00:05:29;30.98;;;21.60;;
59054;SDS011;44845;51.444;7.460;2022-12-07T00:07:54;30.58;;;21.35;;
59054;SDS011;44845;51.444;7.460;2022-12-07T00:10:20;37.00;;;22.85;;
59054;SDS011;44845;51.444;7.460;2022-12-07T00:12:45;30.60;;;21.55;;
59054;SDS011;44845;51.444;7.460;2022-12-07T00:15:10;35.53;;;21.88;;
59054;SDS011;44845;51.444;7.460;2022-12-07T00:17:36;33.08;;;22.35;;
59054;SDS011;44845;51.444;7.460;2022-12-07T00:20:01;29.67;;;22.15;;
59054;SDS011;44845;51.444;7.460;2022-12-07T00:22:26;30.13;;;21.13;;
59054;SDS011;44845;51.444;7.460;2022-12-07T00:24:52;34.83;;;22.88;;
59054;SDS011;44845;51.444;7.460;2022-12-07T00:27:17;31.58;;;22.55;;
59054;SDS011;44845;51.444;7.460;2022-12-07T00:29:42;33.72;;;22.38;;
59054;SDS011;44845;51.444;7.460;2022-12-07T00:32:08;31.83;;;21.15;;
59054;SDS011;44845;51.444;7.460;2022-12-07T00:34:33;30.75;;;20.98;;
59054;SDS011;44845;51.444;7.460;2022-12-07T00:36:58;29.38;;;20.90;;
59054;SDS011;44845;51.444;7.460;2022-12-07T00:39:24;29.88;;;21.48;;
59054;SDS011;44845;51.444;7.460;2022-12-07T00:41:49;36.20;;;23.10;;
59054;SDS011;44845;51.444;7.460;2022-12-07T00:44:14;29.55;;;20.98;;
59054;SDS011;44845;51.444;7.460;2022-12-07T00:46:40;29.85;;;21.08;;
59054;SDS011;44845;51.444;7.460;2022-12-07T00:49:05;30.88;;;21.65;;
59054;SDS011;44845;51.444;7.460;2022-12-07T00:51:30;33.17;;;21.67;;
59054;SDS011;44845;51.444;7.460;2022-12-07T00:53:56;34.10;;;22.40;;
59054;SDS011;44845;51.444;7.460;2022-12-07T00:56:22;35.92;;;22.75;;
59054;SDS011;44845;51.444;7.460;2022-12-07T00:58:53;33.35;;;22.55;;
59054;SDS011;44845;51.444;7.460;2022-12-07T01:01:21;35.22;;;23.33;;
59054;SDS011;44845;51.444;7.460;2022-12-07T01:03:47;27.90;;;21.42;;
59054;SDS011;44845;51.444;7.460;2022-12-07T01:06:16;32.28;;;23.35;;
59054;SDS011;44845;51.444;7.460;2022-12-07T01:08:43;34.65;;;23.60;;
59054;SDS011;44845;51.444;7.460;2022-12-07T01:11:09;35.42;;;22.27;;
59054;SDS011;44845;51.444;7.460;2022-12-07T01:13:38;32.50;;;22.27;;
59054;SDS011;44845;51.444;7.460;2022-12-07T01:16:04;28.73;;;21.40;;
59054;SDS011;44845;51.444;7.460;2022-12-07T01:18:32;31.30;;;21.90;;
59054;SDS011;44845;51.444;7.460;2022-12-07T01:21:03;32.13;;;21.85;;
59054;SDS011;44845;51.444;7.460;2022-12-07T01:23:36;30.48;;;21.20;;
59054;SDS011;44845;51.444;7.460;2022-12-07T01:26:03;29.77;;;22.23;;
59054;SDS011;44845;51.444;7.460;2022-12-07T01:28:34;30.48;;;22.73;;
59054;SDS011;44845;51.444;7.460;2022-12-07T01:31:10;33.42;;;21.50;;
59054;SDS011;44845;51.444;7.460;2022-12-07T01:33:43;31.25;;;20.92;;
59054;SDS011;44845;51.444;7.460;2022-12-07T01:36:17;32.67;;;21.63;;
59054;SDS011;44845;51.444;7.460;2022-12-07T01:38:44;36.45;;;22.80;;
59054;SDS011;44845;51.444;7.460;2022-12-07T01:41:11;32.45;;;20.98;;
59054;SDS011;44845;51.444;7.460;2022-12-07T01:44:06;30.23;;;21.48;;
59054;SDS011;44845;51.444;7.460;2022-12-07T01:46:37;30.88;;;21.73;;
59054;SDS011;44845;51.444;7.460;2022-12-07T01:49:03;33.05;;;21.58;;
59054;SDS011;44845;51.444;7.460;2022-12-07T01:51:30;31.23;;;21.15;;
59054;SDS011;44845;51.444;7.460;2022-12-07T01:53:56;36.92;;;22.30;;
59054;SDS011;44845;51.444;7.460;2022-12-07T01:56:23;32.33;;;20.83;;
59054;SDS011;44845;51.444;7.460;2022-12-07T01:58:50;31.02;;;22.80;;
59054;SDS011;44845;51.444;7.460;2022-12-07T02:01:17;34.30;;;22.80;;
59054;SDS011;44845;51.444;7.460;2022-12-07T02:03:43;37.17;;;22.83;;
59054;SDS011;44845;51.444;7.460;2022-12-07T02:06:10;36.78;;;23.98;;
59054;SDS011;44845;51.444;7.460;2022-12-07T02:08:41;33.17;;;24.00;;
59054;SDS011;44845;51.444;7.460;2022-12-07T02:11:07;35.83;;;24.55;;
59054;SDS011;44845;51.444;7.460;2022-12-07T02:13:35;31.98;;;22.42;;
59054;SDS011;44845;51.444;7.460;2022-12-07T02:21:02;34.58;;;22.23;;
59054;SDS011;44845;51.444;7.460;2022-12-07T02:23:40;30.63;;;21.95;;
59054;SDS011;44845;51.444;7.460;2022-12-07T02:26:19;33.85;;;23.23;;
59054;SDS011;44845;51.444;7.460;2022-12-07T02:29:21;33.85;;;22.77;;
59054;SDS011;44845;51.444;7.460;2022-12-07T02:34:43;30.77;;;22.00;;
59054;SDS011;44845;51.444;7.460;2022-12-07T02:37:19;35.13;;;23.98;;
59054;SDS011;44845;51.444;7.460;2022-12-07T02:39:57;28.92;;;21.65;;
59054;SDS011;44845;51.444;7.460;2022-12-07T02:42:37;31.65;;;21.27;;
59054;SDS011;44845;51.444;7.460;2022-12-07T02:45:09;30.40;;;20.42;;
59054;SDS011;44845;51.444;7.460;2022-12-07T02:47:37;31.92;;;20.58;;
59054;SDS011;44845;51.444;7.460;2022-12-07T02:50:04;27.70;;;20.27;;
59054;SDS011;44845;51.444;7.460;2022-12-07T02:52:30;28.48;;;19.65;;
59054;SDS011;44845;51.444;7.460;2022-12-07T02:54:55;25.95;;;19.25;;
59054;SDS011;44845;51.444;7.460;2022-12-07T02:57:25;25.30;;;19.15;;
59054;SDS011;44845;51.444;7.460;2022-12-07T03:00:07;27.92;;;19.70;;
59054;SDS011;44845;51.444;7.460;2022-12-07T03:13:30;26.83;;;18.92;;
59054;SDS011;44845;51.444;7.460;2022-12-07T03:18:52;27.27;;;19.80;;
59054;SDS011;44845;51.444;7.460;2022-12-07T03:21:25;24.50;;;18.15;;
59054;SDS011;44845;51.444;7.460;2022-12-07T03:23:56;24.52;;;18.50;;
59054;SDS011;44845;51.444;7.460;2022-12-07T03:26:24;28.02;;;19.33;;
59054;SDS011;44845;51.444;7.460;2022-12-07T03:28:57;25.42;;;18.00;;
59054;SDS011;44845;51.444;7.460;2022-12-07T03:31:31;27.45;;;18.63;;
59054;SDS011;44845;51.444;7.460;2022-12-07T03:34:00;28.08;;;18.63;;
59054;SDS011;44845;51.444;7.460;2022-12-07T03:36:35;26.17;;;17.33;;
59054;SDS011;44845;51.444;7.460;2022-12-07T03:41:54;28.00;;;17.67;;
59054;SDS011;44845;51.444;7.460;2022-12-07T03:44:20;26.70;;;17.58;;
59054;SDS011;44845;51.444;7.460;2022-12-07T03:49:42;24.38;;;16.10;;
59054;SDS011;44845;51.444;7.460;2022-12-07T03:54:49;24.00;;;15.52;;
59054;SDS011;44845;51.444;7.460;2022-12-07T03:57:21;25.10;;;16.40;;
59054;SDS011;44845;51.444;7.460;2022-12-07T03:59:48;22.88;;;15.75;;
59054;SDS011;44845;51.444;7.460;2022-12-07T04:02:14;29.15;;;15.63;;
59054;SDS011;44845;51.444;7.460;2022-12-07T04:04:40;26.58;;;15.80;;
59054;SDS011;44845;51.444;7.460;2022-12-07T04:07:07;23.60;;;15.15;;
59054;SDS011;44845;51.444;7.460;2022-12-07T04:09:32;25.75;;;15.88;;
59054;SDS011;44845;51.444;7.460;2022-12-07T04:11:58;24.90;;;16.35;;
59054;SDS011;44845;51.444;7.460;2022-12-07T04:14:23;22.60;;;15.38;;
59054;SDS011;44845;51.444;7.460;2022-12-07T04:16:53;22.92;;;15.85;;
59054;SDS011;44845;51.444;7.460;2022-12-07T04:19:24;23.75;;;15.20;;
59054;SDS011;44845;51.444;7.460;2022-12-07T04:21:55;19.60;;;14.77;;
59054;SDS011;44845;51.444;7.460;2022-12-07T04:24:21;23.67;;;15.50;;
59054;SDS011;44845;51.444;7.460;2022-12-07T04:26:47;26.70;;;15.02;;
59054;SDS011;44845;51.444;7.460;2022-12-07T04:29:13;21.77;;;15.48;;
59054;SDS011;44845;51.444;7.460;2022-12-07T04:31:39;23.92;;;15.27;;
59054;SDS011;44845;51.444;7.460;2022-12-07T04:34:04;24.88;;;14.85;;
59054;SDS011;44845;51.444;7.460;2022-12-07T04:36:31;22.95;;;14.93;;
59054;SDS011;44845;51.444;7.460;2022-12-07T04:38:56;22.75;;;14.63;;
59054;SDS011;44845;51.444;7.460;2022-12-07T04:41:22;21.55;;;15.82;;
59054;SDS011;44845;51.444;7.460;2022-12-07T04:43:52;21.58;;;15.32;;
59054;SDS011;44845;51.444;7.460;2022-12-07T04:46:19;27.95;;;14.57;;
59054;SDS011;44845;51.444;7.460;2022-12-07T04:48:44;20.38;;;14.18;;
59054;SDS011;44845;51.444;7.460;2022-12-07T04:51:09;23.55;;;14.00;;
59054;SDS011;44845;51.444;7.460;2022-12-07T04:53:35;22.23;;;13.07;;
59054;SDS011;44845;51.444;7.460;2022-12-07T04:56:00;20.98;;;13.23;;
59054;SDS011;44845;51.444;7.460;2022-12-07T04:58:26;22.73;;;13.77;;
59054;SDS011;44845;51.444;7.460;2022-12-07T05:00:53;22.38;;;13.50;;
59054;SDS011;44845;51.444;7.460;2022-12-07T05:03:20;20.80;;;13.52;;
59054;SDS011;44845;51.444;7.460;2022-12-07T05:05:45;20.67;;;13.25;;
59054;SDS011;44845;51.444;7.460;2022-12-07T05:08:10;22.85;;;13.18;;
59054;SDS011;44845;51.444;7.460;2022-12-07T05:10:36;24.33;;;13.30;;
59054;SDS011;44845;51.444;7.460;2022-12-07T05:13:03;17.55;;;13.07;;
59054;SDS011;44845;51.444;7.460;2022-12-07T05:15:28;19.80;;;12.13;;
59054;SDS011;44845;51.444;7.460;2022-12-07T05:17:54;19.27;;;13.32;;
59054;SDS011;44845;51.444;7.460;2022-12-07T05:20:19;23.10;;;13.43;;
59054;SDS011;44845;51.444;7.460;2022-12-07T05:22:45;20.40;;;13.60;;
59054;SDS011;44845;51.444;7.460;2022-12-07T05:25:10;22.60;;;13.00;;
59054;SDS011;44845;51.444;7.460;2022-12-07T05:27:35;22.45;;;13.18;;
59054;SDS011;44845;51.444;7.460;2022-12-07T05:30:01;21.73;;;13.07;;
59054;SDS011;44845;51.444;7.460;2022-12-07T05:32:26;18.95;;;12.55;;
59054;SDS011;44845;51.444;7.460;2022-12-07T05:34:51;22.17;;;13.20;;
59054;SDS011;44845;51.444;7.460;2022-12-07T05:37:19;21.65;;;13.50;;
59054;SDS011;44845;51.444;7.460;2022-12-07T05:39:45;20.33;;;12.77;;
59054;SDS011;44845;51.444;7.460;2022-12-07T05:42:10;23.30;;;13.73;;
59054;SDS011;44845;51.444;7.460;2022-12-07T05:44:39;21.23;;;13.15;;
59054;SDS011;44845;51.444;7.460;2022-12-07T05:47:05;23.75;;;13.55;;
59054;SDS011;44845;51.444;7.460;2022-12-07T05:49:31;22.25;;;13.98;;
59054;SDS011;44845;51.444;7.460;2022-12-07T05:51:56;23.83;;;13.80;;
59054;SDS011;44845;51.444;7.460;2022-12-07T05:54:22;23.08;;;13.25;;
59054;SDS011;44845;51.444;7.460;2022-12-07T05:56:47;29.95;;;14.50;;
59054;SDS011;44845;51.444;7.460;2022-12-07T05:59:13;23.63;;;15.32;;
59054;SDS011;44845;51.444;7.460;2022-12-07T06:04:18;24.10;;;15.60;;
59054;SDS011;44845;51.444;7.460;2022-12-07T06:06:44;27.52;;;16.13;;
59054;SDS011;44845;51.444;7.460;2022-12-07T06:09:10;26.60;;;16.30;;
59054;SDS011;44845;51.444;7.460;2022-12-07T06:11:37;27.13;;;15.45;;
59054;SDS011;44845;51.444;7.460;2022-12-07T06:14:21;27.05;;;16.08;;
59054;SDS011;44845;51.444;7.460;2022-12-07T06:16:46;28.98;;;16.27;;
59054;SDS011;44845;51.444;7.460;2022-12-07T06:19:12;27.45;;;17.17;;
59054;SDS011;44845;51.444;7.460;2022-12-07T06:21:37;28.42;;;16.83;;
59054;SDS011;44845;51.444;7.460;2022-12-07T06:24:05;26.50;;;16.15;;
59054;SDS011;44845;51.444;7.460;2022-12-07T06:26:31;24.20;;;15.90;;
59054;SDS011;44845;51.444;7.460;2022-12-07T06:28:56;29.95;;;17.25;;
59054;SDS011;44845;51.444;7.460;2022-12-07T06:31:21;26.48;;;16.88;;
59054;SDS011;44845;51.444;7.460;2022-12-07T06:33:47;26.65;;;15.43;;
59054;SDS011;44845;51.444;7.460;2022-12-07T06:36:12;28.25;;;15.13;;
59054;SDS011;44845;51.444;7.460;2022-12-07T06:38:38;26.67;;;15.85;;
59054;SDS011;44845;51.444;7.460;2022-12-07T06:41:03;22.63;;;14.98;;
59054;SDS011;44845;51.444;7.460;2022-12-07T06:43:29;22.05;;;14.25;;
59054;SDS011;44845;51.444;7.460;2022-12-07T06:45:54;30.55;;;14.45;;
59054;SDS011;44845;51.444;7.460;2022-12-07T06:48:20;23.95;;;14.02;;
59054;SDS011;44845;51.444;7.460;2022-12-07T06:50:47;22.35;;;13.40;;
59054;SDS011;44845;51.444;7.460;2022-12-07T06:53:13;23.40;;;14.63;;
59054;SDS011;44845;51.444;7.460;2022-12-07T06:55:38;26.27;;;14.82;;
59054;SDS011;44845;51.444;7.460;2022-12-07T06:58:03;25.67;;;16.05;;
59054;SDS011;44845;51.444;7.460;2022-12-07T07:00:29;23.23;;;14.52;;
59054;SDS011;44845;51.444;7.460;2022-12-07T07:02:54;26.15;;;14.40;;
59054;SDS011;44845;51.444;7.460;2022-12-07T07:05:20;23.75;;;15.10;;
59054;SDS011;44845;51.444;7.460;2022-12-07T07:07:49;23.65;;;14.98;;
59054;SDS011;44845;51.444;7.460;2022-12-07T07:10:15;32.33;;;16.00;;
59054;SDS011;44845;51.444;7.460;2022-12-07T07:12:40;22.45;;;14.50;;
59054;SDS011;44845;51.444;7.460;2022-12-07T07:15:06;22.20;;;15.00;;
59054;SDS011;44845;51.444;7.460;2022-12-07T07:17:32;25.30;;;14.82;;
59054;SDS011;44845;51.444;7.460;2022-12-07T07:19:57;20.23;;;13.95;;
59054;SDS011;44845;51.444;7.460;2022-12-07T07:22:22;23.40;;;13.63;;
59054;SDS011;44845;51.444;7.460;2022-12-07T07:24:48;22.83;;;13.18;;
59054;SDS011;44845;51.444;7.460;2022-12-07T07:27:13;21.40;;;13.57;;
59054;SDS011;44845;51.444;7.460;2022-12-07T07:29:38;22.60;;;14.10;;
59054;SDS011;44845;51.444;7.460;2022-12-07T07:32:04;22.67;;;13.07;;
59054;SDS011;44845;51.444;7.460;2022-12-07T07:34:29;22.30;;;13.05;;
59054;SDS011;44845;51.444;7.460;2022-12-07T07:36:55;18.70;;;13.60;;
59054;SDS011;44845;51.444;7.460;2022-12-07T07:39:20;20.52;;;13.52;;
59054;SDS011;44845;51.444;7.460;2022-12-07T07:41:46;20.33;;;12.07;;
59054;SDS011;44845;51.444;7.460;2022-12-07T07:44:11;19.42;;;12.25;;
59054;SDS011;44845;51.444;7.460;2022-12-07T07:46:36;26.10;;;12.50;;
59054;SDS011;44845;51.444;7.460;2022-12-07T07:49:02;21.20;;;12.23;;
59054;SDS011;44845;51.444;7.460;2022-12-07T07:51:27;18.30;;;11.98;;
59054;SDS011;44845;51.444;7.460;2022-12-07T07:53:52;22.25;;;12.70;;
59054;SDS011;44845;51.444;7.460;2022-12-07T07:56:18;21.35;;;12.10;;
59054;SDS011;44845;51.444;7.460;2022-12-07T07:58:43;18.27;;;11.45;;
59054;SDS011;44845;51.444;7.460;2022-12-07T08:01:08;20.25;;;11.82;;
59054;SDS011;44845;51.444;7.460;2022-12-07T08:03:34;21.42;;;11.10;;
59054;SDS011;44845;51.444;7.460;2022-12-07T08:06:01;21.30;;;11.23;;
59054;SDS011;44845;51.444;7.460;2022-12-07T08:08:27;24.30;;;10.85;;
59054;SDS011;44845;51.444;7.460;2022-12-07T08:10:53;19.77;;;11.23;;
59054;SDS011;44845;51.444;7.460;2022-12-07T08:13:18;19.17;;;11.45;;
59054;SDS011;44845;51.444;7.460;2022-12-07T08:15:44;19.73;;;10.52;;
59054;SDS011;44845;51.444;7.460;2022-12-07T08:18:11;18.30;;;11.32;;
59054;SDS011;44845;51.444;7.460;2022-12-07T08:20:38;18.38;;;10.55;;
59054;SDS011;44845;51.444;7.460;2022-12-07T08:23:04;21.13;;;10.77;;
59054;SDS011;44845;51.444;7.460;2022-12-07T08:25:30;17.80;;;11.10;;
59054;SDS011;44845;51.444;7.460;2022-12-07T08:27:56;19.15;;;11.32;;
59054;SDS011;44845;51.444;7.460;2022-12-07T08:30:21;15.13;;;10.57;;
59054;SDS011;44845;51.444;7.460;2022-12-07T08:32:47;16.60;;;10.35;;
59054;SDS011;44845;51.444;7.460;2022-12-07T08:35:13;18.10;;;10.43;;
59054;SDS011;44845;51.444;7.460;2022-12-07T08:37:39;22.67;;;11.27;;
59054;SDS011;44845;51.444;7.460;2022-12-07T08:40:06;15.93;;;9.73;;
59054;SDS011;44845;51.444;7.460;2022-12-07T08:42:32;15.57;;;9.07;;
59054;SDS011;44845;51.444;7.460;2022-12-07T08:45:05;19.88;;;9.85;;
59054;SDS011;44845;51.444;7.460;2022-12-07T08:47:31;15.35;;;9.20;;
59054;SDS011;44845;51.444;7.460;2022-12-07T08:49:57;14.38;;;8.30;;
59054;SDS011;44845;51.444;7.460;2022-12-07T08:52:28;15.23;;;9.25;;
59054;SDS011;44845;51.444;7.460;2022-12-07T08:54:54;19.60;;;8.98;;
59054;SDS011;44845;51.444;7.460;2022-12-07T08:57:20;14.35;;;8.60;;
59054;SDS011;44845;51.444;7.460;2022-12-07T08:59:46;15.35;;;8.32;;
59054;SDS011;44845;51.444;7.460;2022-12-07T09:02:13;12.95;;;8.07;;
59054;SDS011;44845;51.444;7.460;2022-12-07T09:04:39;16.25;;;8.63;;
59054;SDS011;44845;51.444;7.460;2022-12-07T09:07:04;15.15;;;9.10;;
59054;SDS011;44845;51.444;7.460;2022-12-07T09:09:29;13.30;;;7.95;;
59054;SDS011;44845;51.444;7.460;2022-12-07T09:11:55;14.30;;;8.15;;
59054;SDS011;44845;51.444;7.460;2022-12-07T09:14:20;15.57;;;8.93;;
59054;SDS011;44845;51.444;7.460;2022-12-07T09:16:46;17.00;;;9.23;;
59054;SDS011;44845;51.444;7.460;2022-12-07T09:19:11;15.18;;;9.07;;
59054;SDS011;44845;51.444;7.460;2022-12-07T09:21:37;16.58;;;9.07;;
59054;SDS011;44845;51.444;7.460;2022-12-07T09:24:02;16.50;;;9.30;;
59054;SDS011;44845;51.444;7.460;2022-12-07T09:26:28;17.63;;;9.77;;
59054;SDS011;44845;51.444;7.460;2022-12-07T09:28:53;22.48;;;10.77;;
59054;SDS011;44845;51.444;7.460;2022-12-07T09:31:18;17.27;;;10.43;;
59054;SDS011;44845;51.444;7.460;2022-12-07T09:33:44;21.92;;;9.75;;
59054;SDS011;44845;51.444;7.460;2022-12-07T09:36:09;19.77;;;10.88;;
59054;SDS011;44845;51.444;7.460;2022-12-07T09:38:35;18.55;;;11.02;;
59054;SDS011;44845;51.444;7.460;2022-12-07T09:41:03;18.75;;;11.35;;
59054;SDS011;44845;51.444;7.460;2022-12-07T09:43:31;19.13;;;10.75;;
59054;SDS011;44845;51.444;7.460;2022-12-07T09:45:56;17.83;;;10.73;;
59054;SDS011;44845;51.444;7.460;2022-12-07T09:48:35;23.25;;;11.43;;
59054;SDS011;44845;51.444;7.460;2022-12-07T09:51:09;19.08;;;11.23;;
59054;SDS011;44845;51.444;7.460;2022-12-07T09:53:41;15.45;;;10.80;;
59054;SDS011;44845;51.444;7.460;2022-12-07T09:56:08;17.58;;;10.50;;
59054;SDS011;44845;51.444;7.460;2022-12-07T09:58:38;16.98;;;11.05;;
59054;SDS011;44845;51.444;7.460;2022-12-07T10:01:19;20.90;;;10.77;;
59054;SDS011;44845;51.444;7.460;2022-12-07T10:03:53;19.08;;;11.70;;
59054;SDS011;44845;51.444;7.460;2022-12-07T10:08:46;24.83;;;13.65;;
59054;SDS011;44845;51.444;7.460;2022-12-07T10:11:11;25.73;;;13.98;;
59054;SDS011;44845;51.444;7.460;2022-12-07T10:13:38;21.92;;;13.88;;
59054;SDS011;44845;51.444;7.460;2022-12-07T10:18:50;27.50;;;16.60;;
59054;SDS011;44845;51.444;7.460;2022-12-07T10:21:17;23.98;;;15.45;;
59054;SDS011;44845;51.444;7.460;2022-12-07T10:24:04;26.15;;;16.30;;
59054;SDS011;44845;51.444;7.460;2022-12-07T10:29:21;20.60;;;14.88;;
59054;SDS011;44845;51.444;7.460;2022-12-07T10:32:00;24.48;;;16.23;;
59054;SDS011;44845;51.444;7.460;2022-12-07T10:34:41;25.58;;;16.25;;
59054;SDS011;44845;51.444;7.460;2022-12-07T10:42:15;24.77;;;15.95;;
59054;SDS011;44845;51.444;7.460;2022-12-07T10:45:14;27.37;;;16.33;;
59054;SDS011;44845;51.444;7.460;2022-12-07T10:47:48;24.17;;;15.07;;
59054;SDS011;44845;51.444;7.460;2022-12-07T10:53:26;25.08;;;14.45;;
59054;SDS011;44845;51.444;7.460;2022-12-07T10:56:14;26.67;;;15.07;;
59054;SDS011;44845;51.444;7.460;2022-12-07T11:01:49;23.85;;;14.35;;
59054;SDS011;44845;51.444;7.460;2022-12-07T11:04:34;23.75;;;13.07;;
59054;SDS011;44845;51.444;7.460;2022-12-07T11:10:22;18.35;;;11.45;;
59054;SDS011;44845;51.444;7.460;2022-12-07T11:15:24;22.23;;;9.80;;
59054;SDS011;44845;51.444;7.460;2022-12-07T11:18:13;16.60;;;9.85;;
59054;SDS011;44845;51.444;7.460;2022-12-07T11:20:54;17.80;;;9.18;;
59054;SDS011;44845;51.444;7.460;2022-12-07T11:23:25;21.27;;;9.60;;
59054;SDS011;44845;51.444;7.460;2022-12-07T11:35:33;12.20;;;7.53;;
59054;SDS011;44845;51.444;7.460;2022-12-07T11:38:07;15.60;;;8.27;;
59054;SDS011;44845;51.444;7.460;2022-12-07T11:40:50;17.38;;;7.95;;
59054;SDS011;44845;51.444;7.460;2022-12-07T11:43:37;13.65;;;7.63;;
59054;SDS011;44845;51.444;7.460;2022-12-07T11:46:11;14.68;;;7.50;;
59054;SDS011;44845;51.444;7.460;2022-12-07T11:51:26;14.13;;;7.78;;
59054;SDS011;44845;51.444;7.460;2022-12-07T11:53:57;12.45;;;7.57;;
59054;SDS011;44845;51.444;7.460;2022-12-07T11:56:28;13.43;;;7.25;;
59054;SDS011;44845;51.444;7.460;2022-12-07T12:01:38;17.60;;;7.20;;
59054;SDS011;44845;51.444;7.460;2022-12-07T12:04:23;12.98;;;6.88;;
59054;SDS011;44845;51.444;7.460;2022-12-07T12:06:51;15.43;;;6.75;;
59054;SDS011;44845;51.444;7.460;2022-12-07T12:09:19;10.32;;;7.00;;
59054;SDS011;44845;51.444;7.460;2022-12-07T12:21:28;11.38;;;5.90;;
59054;SDS011;44845;51.444;7.460;2022-12-07T12:24:02;8.38;;;4.80;;
59054;SDS011;44845;51.444;7.460;2022-12-07T12:26:31;10.43;;;4.50;;
59054;SDS011;44845;51.444;7.460;2022-12-07T12:29:00;14.50;;;4.65;;
59054;SDS011;44845;51.444;7.460;2022-12-07T12:31:31;9.45;;;4.53;;
59054;SDS011;44845;51.444;7.460;2022-12-07T12:34:28;9.05;;;4.43;;
59054;SDS011;44845;51.444;7.460;2022-12-07T12:36:55;11.07;;;5.00;;
59054;SDS011;44845;51.444;7.460;2022-12-07T12:39:22;8.00;;;4.07;;
59054;SDS011;44845;51.444;7.460;2022-12-07T12:46:54;6.45;;;3.20;;
59054;SDS011;44845;51.444;7.460;2022-12-07T12:49:39;6.88;;;2.90;;
59054;SDS011;44845;51.444;7.460;2022-12-07T12:54:41;6.30;;;3.22;;
59054;SDS011;44845;51.444;7.460;2022-12-07T13:04:51;10.88;;;2.40;;
59054;SDS011;44845;51.444;7.460;2022-12-07T13:10:20;8.35;;;2.15;;
59054;SDS011;44845;51.444;7.460;2022-12-07T13:23:37;5.70;;;2.40;;
59054;SDS011;44845;51.444;7.460;2022-12-07T13:31:42;8.60;;;4.70;;
59054;SDS011;44845;51.444;7.460;2022-12-07T13:36:55;9.90;;;5.10;;
59054;SDS011;44845;51.444;7.460;2022-12-07T13:39:22;9.57;;;4.80;;
59054;SDS011;44845;51.444;7.460;2022-12-07T13:41:50;7.68;;;4.78;;
59054;SDS011;44845;51.444;7.460;2022-12-07T13:44:20;11.27;;;5.72;;
59054;SDS011;44845;51.444;7.460;2022-12-07T13:49:37;11.40;;;6.00;;
59054;SDS011;44845;51.444;7.460;2022-12-07T13:52:21;17.85;;;6.75;;
59054;SDS011;44845;51.444;7.460;2022-12-07T13:57:29;10.75;;;5.85;;
59054;SDS011;44845;51.444;7.460;2022-12-07T13:59:55;12.32;;;5.38;;
59054;SDS011;44845;51.444;7.460;2022-12-07T14:04:52;14.25;;;5.72;;
59054;SDS011;44845;51.444;7.460;2022-12-07T14:07:30;10.40;;;4.75;;
59054;SDS011;44845;51.444;7.460;2022-12-07T14:10:00;9.13;;;4.93;;
59054;SDS011;44845;51.444;7.460;2022-12-07T14:12:28;11.75;;;5.43;;
59054;SDS011;44845;51.444;7.460;2022-12-07T14:14:55;10.30;;;5.22;;
59054;SDS011;44845;51.444;7.460;2022-12-07T14:17:22;13.02;;;5.47;;
59054;SDS011;44845;51.444;7.460;2022-12-07T14:19:56;8.98;;;4.88;;
59054;SDS011;44845;51.444;7.460;2022-12-07T14:24:58;12.95;;;5.88;;
59054;SDS011;44845;51.444;7.460;2022-12-07T14:30:29;14.35;;;5.20;;
59054;SDS011;44845;51.444;7.460;2022-12-07T14:33:02;10.93;;;5.18;;
59054;SDS011;44845;51.444;7.460;2022-12-07T14:37:56;3.00;;;1.60;;
59054;SDS011;44845;51.444;7.460;2022-12-07T14:40:26;4.13;;;1.88;;
59054;SDS011;44845;51.444;7.460;2022-12-07T14:42:54;4.68;;;1.60;;
59054;SDS011;44845;51.444;7.460;2022-12-07T14:45:23;4.00;;;1.50;;
59054;SDS011;44845;51.444;7.460;2022-12-07T14:47:48;3.53;;;1.27;;
59054;SDS011;44845;51.444;7.460;2022-12-07T14:50:15;5.82;;;1.90;;
59054;SDS011;44845;51.444;7.460;2022-12-07T14:52:45;3.08;;;1.65;;
59054;SDS011;44845;51.444;7.460;2022-12-07T14:55:14;6.88;;;1.98;;
59054;SDS011;44845;51.444;7.460;2022-12-07T14:57:45;4.55;;;2.10;;
59054;SDS011;44845;51.444;7.460;2022-12-07T15:00:13;5.25;;;2.30;;
59054;SDS011;44845;51.444;7.460;2022-12-07T15:02:39;7.40;;;2.13;;
59054;SDS011;44845;51.444;7.460;2022-12-07T15:05:05;7.38;;;2.33;;
59054;SDS011;44845;51.444;7.460;2022-12-07T15:07:30;6.40;;;2.00;;
59054;SDS011;44845;51.444;7.460;2022-12-07T15:09:55;7.15;;;2.08;;
59054;SDS011;44845;51.444;7.460;2022-12-07T15:12:21;5.53;;;1.95;;
59054;SDS011;44845;51.444;7.460;2022-12-07T15:14:46;7.68;;;2.40;;
59054;SDS011;44845;51.444;7.460;2022-12-07T15:17:11;6.47;;;2.03;;
59054;SDS011;44845;51.444;7.460;2022-12-07T15:19:37;3.17;;;2.10;;
59054;SDS011;44845;51.444;7.460;2022-12-07T15:22:03;4.35;;;2.08;;
59054;SDS011;44845;51.444;7.460;2022-12-07T15:24:29;6.38;;;2.58;;
59054;SDS011;44845;51.444;7.460;2022-12-07T15:26:54;8.23;;;2.80;;
59054;SDS011;44845;51.444;7.460;2022-12-07T15:29:20;4.28;;;3.13;;
59054;SDS011;44845;51.444;7.460;2022-12-07T15:31:47;8.60;;;3.13;;
59054;SDS011;44845;51.444;7.460;2022-12-07T15:34:13;9.23;;;3.15;;
59054;SDS011;44845;51.444;7.460;2022-12-07T15:36:41;6.35;;;3.25;;
59054;SDS011;44845;51.444;7.460;2022-12-07T15:39:06;7.57;;;3.55;;
59054;SDS011;44845;51.444;7.460;2022-12-07T15:41:32;7.22;;;3.20;;
59054;SDS011;44845;51.444;7.460;2022-12-07T15:43:58;7.10;;;3.60;;
59054;SDS011;44845;51.444;7.460;2022-12-07T15:46:41;8.27;;;3.80;;
59054;SDS011;44845;51.444;7.460;2022-12-07T15:49:11;9.40;;;3.17;;
59054;SDS011;44845;51.444;7.460;2022-12-07T15:51:38;7.82;;;3.22;;
59054;SDS011;44845;51.444;7.460;2022-12-07T15:54:04;4.18;;;2.92;;
59054;SDS011;44845;51.444;7.460;2022-12-07T15:56:29;7.43;;;3.40;;
59054;SDS011;44845;51.444;7.460;2022-12-07T15:58:55;9.63;;;3.35;;
59054;SDS011;44845;51.444;7.460;2022-12-07T16:01:21;7.15;;;3.55;;
59054;SDS011;44845;51.444;7.460;2022-12-07T16:03:47;7.28;;;3.28;;
59054;SDS011;44845;51.444;7.460;2022-12-07T16:06:15;9.73;;;4.10;;
59054;SDS011;44845;51.444;7.460;2022-12-07T16:08:45;9.23;;;4.20;;
59054;SDS011;44845;51.444;7.460;2022-12-07T16:11:11;11.98;;;4.50;;
59054;SDS011;44845;51.444;7.460;2022-12-07T16:13:37;13.93;;;4.15;;
59054;SDS011;44845;51.444;7.460;2022-12-07T16:16:05;11.48;;;3.92;;
59054;SDS011;44845;51.444;7.460;2022-12-07T16:18:32;13.50;;;4.30;;
59054;SDS011;44845;51.444;7.460;2022-12-07T16:20:58;11.70;;;3.95;;
59054;SDS011;44845;51.444;7.460;2022-12-07T16:23:23;8.23;;;3.67;;
59054;SDS011;44845;51.444;7.460;2022-12-07T16:25:49;8.10;;;3.60;;
59054;SDS011;44845;51.444;7.460;2022-12-07T16:28:14;6.75;;;3.55;;
59054;SDS011;44845;51.444;7.460;2022-12-07T16:30:39;7.90;;;3.58;;
59054;SDS011;44845;51.444;7.460;2022-12-07T16:33:05;5.95;;;3.45;;
59054;SDS011;44845;51.444;7.460;2022-12-07T16:35:30;10.68;;;3.60;;
59054;SDS011;44845;51.444;7.460;2022-12-07T16:37:56;7.45;;;3.53;;
59054;SDS011;44845;51.444;7.460;2022-12-07T16:40:21;8.05;;;3.47;;
59054;SDS011;44845;51.444;7.460;2022-12-07T16:42:46;7.93;;;3.20;;
59054;SDS011;44845;51.444;7.460;2022-12-07T16:45:12;5.38;;;2.90;;
59054;SDS011;44845;51.444;7.460;2022-12-07T16:47:38;8.23;;;3.60;;
59054;SDS011;44845;51.444;7.460;2022-12-07T16:50:04;10.45;;;3.53;;